KSBM/SBM METAR and TAF weather

Enter ICAO airport designator
Station Type Date Time Source
KSBM METAR 2021/07/28 20:53 UTC NOAA

KSBM 282053Z AUTO 10007KT 10SM CLR 27/20 A2998 RMK AO2 SLP148 T02670200 56017


Station Type Date Time Source
KSBM Decoded METAR 2021/07/28 20:53 UTC NOAA

SHEBOYGAN CO MEMORIAL AIRPORT , WI, United States (KSBM) 43-47N 87-51W 232M
Jul 28, 2021 - 04:53 PM EDT / 2021.07.28 2053 UTC
Wind: from the E (100 degrees) at 8 MPH (7 KT):0
Visibility: 10 mile(s):0
Sky conditions: clear
Temperature: 80.1 F (26.7 C)
Dew Point: 68.0 F (20.0 C)
Relative Humidity: 66%
Pressure (altimeter): 29.98 in. Hg (1015 hPa)
Pressure tendency: 0.05 inches (1.7 hPa) lower than three hours ago
ob: KSBM 282053Z AUTO 10007KT 10SM CLR 27/20 A2998 RMK AO2 SLP148 T02670200 56017
cycle: 21

Station Type Date Time Source
KSBM TAF 2021/07/28 18:27 UTC NOAA

TAF KSBM 281724Z 2818/2918 14009KT P6SM FEW250
FM290300 13007KT P6SM +TSRA OVC070CB WS020/32030KT
FM290500 21009KT 5SM +TSRA OVC070CB
FM290900 28006KT 6SM BR VCSH BKN060
FM291100 31009KT 5SM BR BKN045
FM291500 35013KT P6SM BKN013

Example: see airport list